Latest Weather Observations for Parafield

IDS60801

Issued at 9:51 pm CST Thursday 24 September 2020 (issued every 10 minutes, with the page automatically refreshed every 10 minutes)

About weather observations | Map of weather stations | Latest weather observations for SA | Other Formats
Station Details ID: 023013 Name: PARAFIELD AIRPORT Lat: -34.80 Lon: 138.63 Height: 9.5 m
Data from the previous 72 hours. | See also: Recent months at Parafield
Date/Time
CST
Temp
°C
App
Temp
°C
Dew
Point
°C
Rel
Hum
%
Delta-T
°C
Wind Press
QNH
hPa
Press
MSL
hPa
Rain since
9am
mm
Dir  Spd
km/h
Gust
km/h
Spd
kts
Gust
kts
24/09:30pm 8.5 7.2 6.1 85 1.1 SW 2 7 1 4 1009.9 1009.9 3.0
24/09:00pm 8.4 4.6 5.9 84 1.1 SW 15 20 8 11 1010.2 1010.2 3.0
24/08:32pm 9.7 3.5 6.1 78 1.7 W 28 48 15 26 1010.1 1010.1 2.8
24/08:30pm 9.9 4.2 5.1 72 2.2 W 24 46 13 25 1010.0 1010.0 2.8
24/08:00pm 10.2 5.4 5.6 73 2.1 WSW 20 30 11 16 1010.1 1010.1 2.8
24/07:30pm 10.2 4.9 5.0 70 2.4 WSW 22 39 12 21 1010.2 1010.2 2.8
24/07:00pm 8.9 5.6 6.2 83 1.2 W 13 20 7 11 1010.3 1010.3 2.8
24/06:30pm 10.3 5.9 7.2 81 1.5 W 20 37 11 20 1010.3 1010.3 2.6
24/06:00pm 10.6 4.0 6.2 74 2.1 WSW 30 41 16 22 1010.1 1010.1 2.4
24/05:30pm 11.2 4.7 6.7 74 2.1 WSW 30 39 16 21 1010.1 1010.1 2.4
24/05:00pm 12.0 4.7 7.1 72 2.4 WSW 35 50 19 27 1009.9 1009.9 2.4
24/04:47pm 12.0 5.6 6.9 71 2.4 W 30 54 16 29 1009.7 1009.7 2.4
24/04:30pm 11.8 6.6 7.3 74 2.2 W 24 35 13 19 1009.7 1009.7 2.4
24/04:00pm 11.6 7.6 9.2 85 1.2 WNW 20 32 11 17 1009.8 1009.8 2.4
24/03:30pm 11.4 7.0 9.1 86 1.1 WNW 22 32 12 17 1010.2 1010.2 2.2
24/03:22pm 11.2 5.7 9.1 87 1.0 WNW 28 44 15 24 1010.1 1010.1 2.2
24/03:04pm 11.4 5.8 10.0 91 0.7 WNW 30 48 16 26 1010.4 1010.4 2.0
24/03:03pm 11.5 6.0 10.4 93 0.6 WNW 30 44 16 24 1010.4 1010.4 2.0
24/03:00pm 11.6 5.7 10.5 93 0.6 WNW 32 48 17 26 1010.4 1010.4 2.0
24/02:30pm 11.5 7.0 10.1 91 0.7 NW 24 37 13 20 1010.5 1010.5 1.4
24/02:02pm 11.4 6.0 9.5 88 1.0 WNW 28 46 15 25 1011.1 1011.1 1.2
24/02:00pm 11.3 5.4 9.2 87 1.0 WNW 30 46 16 25 1011.1 1011.1 1.2
24/01:39pm 12.7 6.0 7.2 69 2.7 WNW 32 50 17 27 1011.3 1011.3 0.0
24/01:30pm 13.4 6.1 7.2 66 3.0 WNW 35 48 19 26 1011.2 1011.2 0.0
24/01:00pm 14.5 7.6 6.3 58 3.9 NW 32 50 17 27 1011.7 1011.7 0.0
24/12:58pm 14.8 8.0 7.1 60 3.8 NW 32 50 17 27 1011.8 1011.8 0.0
24/12:30pm 15.2 8.4 7.0 58 4.0 NW 32 43 17 23 1012.4 1012.4 0.0
24/12:00pm 15.5 8.9 7.8 60 3.8 NW 32 43 17 23 1013.1 1013.1 0.0
24/11:30am 14.4 8.1 7.5 63 3.4 NW 30 44 16 24 1013.8 1013.8 0.0
24/11:00am 14.4 8.5 7.7 64 3.3 WNW 28 37 15 20 1014.4 1014.4 0.0
24/10:30am 13.2 7.6 7.2 67 2.9 WNW 26 37 14 20 1015.1 1015.1 0.0
24/10:00am 12.7 7.3 8.2 74 2.2 WNW 26 35 14 19 1015.9 1015.9 0.0
24/09:30am 11.8 7.4 7.5 75 2.1 WNW 20 32 11 17 1016.4 1016.4 0.0
24/09:04am 11.5 8.4 10.2 92 0.7 WNW 17 20 9 11 1016.6 1016.6 0.0
24/09:00am 11.2 8.1 10.4 95 0.4 WNW 17 26 9 14 1016.6 1016.6 1.6
24/08:39am 12.0 9.1 11.1 94 0.5 WNW 17 28 9 15 1016.8 1016.8 0.6
24/08:30am 11.5 9.0 11.0 97 0.3 WNW 15 20 8 11 1017.0 1017.0 0.6
24/08:00am 12.3 7.9 7.6 73 2.3 WNW 20 30 11 16 1017.0 1017.0 0.2
24/07:30am 10.9 6.6 7.2 78 1.8 WNW 19 24 10 13 1017.1 1017.1 0.2
24/07:00am 10.3 8.0 9.1 92 0.6 NNW 11 15 6 8 1017.1 1017.1 0.2
24/06:30am 10.2 7.8 8.5 89 0.8 N 11 13 6 7 1016.9 1016.9 0.2
24/06:00am 10.0 7.9 8.3 89 0.8 NNW 9 13 5 7 1016.9 1016.9 0.2
24/05:30am 10.5 7.3 8.4 87 1.0 NW 15 24 8 13 1017.0 1017.0 0.2
24/05:00am 9.6 8.3 9.3 98 0.1 ENE 6 11 3 6 1017.2 1017.2 0.2
24/04:30am 10.0 7.9 8.1 88 0.9 N 9 9 5 5 1017.3 1017.3 0.2
24/04:00am 10.5 7.4 7.4 81 1.5 NW 13 17 7 9 1017.4 1017.4 0.2
24/03:30am 10.5 8.1 7.2 80 1.6 WNW 9 13 5 7 1017.5 1017.5 0.2
24/03:00am 10.2 7.6 6.2 76 1.9 W 9 11 5 6 1017.8 1017.8 0.2
24/02:30am 9.4 7.3 6.5 82 1.3 NNE 7 7 4 4 1018.0 1018.0 0.2
24/02:00am 8.9 7.7 6.3 84 1.2 ENE 2 7 1 4 1018.4 1018.4 0.2
24/01:41am 9.0 8.2 6.6 85 1.1 CALM 0 0 0 0 1018.6 1018.6 0.2
24/01:30am 8.9 8.1 6.3 84 1.2 CALM 0 0 0 0 1018.8 1018.8 0.2
24/01:24am 8.9 8.0 6.2 83 1.2 CALM 0 0 0 0 1018.8 1018.8 0.2
24/01:00am 9.0 6.7 5.0 76 1.8 SW 6 9 3 5 1019.2 1019.2 0.2
24/12:30am 8.4 5.3 3.5 71 2.1 SW 9 11 5 6 1019.5 1019.5 0.2
24/12:00am 9.3 5.4 3.5 67 2.5 SW 13 15 7 8 1019.8 1019.8 0.2
 
Date/Time
CST
Temp
°C
App
Temp
°C
Dew
Point
°C
Rel
Hum
%
Delta-T
°C
Wind Press
QNH
hPa
Press
MSL
hPa
Rain since
9am
mm
Dir  Spd
km/h
Gust
km/h
Spd
kts
Gust
kts
23/11:30pm 9.5 6.3 4.9 73 2.1 SW 11 15 6 8 1019.9 1019.9 0.2
23/11:00pm 8.4 5.3 3.7 72 2.0 SSW 9 11 5 6 1020.2 1020.2 0.2
23/10:30pm 9.4 5.6 4.0 69 2.4 SSW 13 17 7 9 1020.5 1020.5 0.2
23/10:00pm 10.3 5.9 4.7 68 2.5 SSW 17 22 9 12 1020.6 1020.6 0.2
23/09:30pm 9.9 7.0 6.4 79 1.6 SSW 11 13 6 7 1021.0 1021.0 0.2
23/09:00pm 10.8 6.9 6.9 77 1.8 SSW 17 24 9 13 1020.8 1020.8 0.2
23/08:30pm 12.3 7.0 6.6 68 2.7 WSW 24 30 13 16 1020.7 1020.7 0.2
23/08:00pm 12.2 7.6 5.4 63 3.2 WSW 19 28 10 15 1020.6 1020.6 0.2
23/07:30pm 12.2 7.0 5.6 64 3.1 WSW 22 30 12 16 1020.4 1020.4 0.2
23/07:00pm 12.1 6.7 6.2 67 2.8 WSW 24 30 13 16 1020.2 1020.2 0.2
23/06:30pm 12.0 8.3 6.5 69 2.6 WSW 15 20 8 11 1020.0 1020.0 0.2
23/06:00pm 12.2 7.8 6.7 69 2.6 SW 19 26 10 14 1019.8 1019.8 0.2
23/05:30pm 12.9 8.0 6.9 67 2.9 SW 22 33 12 18 1019.9 1019.9 0.2
23/05:00pm 13.8 6.7 6.4 61 3.5 WSW 33 43 18 23 1019.5 1019.5 0.2
23/04:30pm 14.3 8.5 7.8 65 3.2 SW 28 43 15 23 1019.4 1019.4 0.2
23/04:00pm 14.5 7.1 4.8 52 4.5 WSW 33 50 18 27 1019.1 1019.1 0.2
23/03:30pm 15.4 7.4 5.6 52 4.7 WSW 37 52 20 28 1019.1 1019.1 0.2
23/03:00pm 16.3 8.3 5.6 49 5.1 WSW 37 50 20 27 1019.0 1019.0 0.2
23/02:40pm 16.2 8.6 3.9 44 5.7 WSW 33 52 18 28 1019.0 1019.0 0.2
23/02:30pm 15.8 8.4 4.8 48 5.2 SW 33 50 18 27 1019.1 1019.1 0.2
23/02:00pm 15.7 8.7 6.7 55 4.4 SW 33 52 18 28 1019.0 1019.0 0.2
23/01:58pm 15.3 7.9 5.2 51 4.8 WSW 33 52 18 28 1019.0 1019.0 0.2
23/01:30pm 16.3 9.1 5.9 50 5.0 SW 33 44 18 24 1019.2 1019.2 0.2
23/01:00pm 15.9 9.1 6.9 55 4.4 WSW 32 44 17 24 1019.3 1019.3 0.0
23/12:30pm 15.0 8.9 6.8 58 4.0 WSW 28 39 15 21 1019.4 1019.4 0.0
23/12:00pm 14.8 8.7 6.6 58 4.0 WSW 28 39 15 21 1019.4 1019.4 0.0
23/11:30am 15.3 9.3 7.1 58 4.0 WSW 28 44 15 24 1019.5 1019.5 0.0
23/11:17am 15.8 9.5 7.6 58 4.1 WSW 30 48 16 26 1019.5 1019.5 0.0
23/11:00am 15.0 9.1 7.3 60 3.8 SW 28 39 15 21 1019.4 1019.4 0.0
23/10:30am 14.1 7.4 7.2 63 3.4 SW 32 41 17 22 1019.6 1019.6 0.0
23/10:00am 13.4 7.8 7.0 65 3.1 WSW 26 37 14 20 1019.5 1019.5 0.0
23/09:30am 13.6 9.2 8.9 73 2.4 WSW 22 32 12 17 1019.4 1019.4 0.0
23/09:00am 13.0 7.6 9.6 80 1.7 WSW 28 37 15 20 1019.3 1019.3 2.2
23/08:30am 12.6 7.8 8.7 77 1.9 W 24 35 13 19 1019.0 1019.0 2.2
23/08:22am 13.3 9.0 10.7 84 1.4 W 24 32 13 17 1018.9 1018.9 2.2
23/08:10am 12.3 8.9 10.7 90 0.8 W 19 26 10 14 1018.8 1018.8 2.2
23/08:00am 12.6 8.7 10.8 89 0.9 WSW 22 30 12 16 1018.8 1018.8 2.2
23/07:30am 11.2 7.5 9.3 88 0.9 WSW 19 28 10 15 1018.7 1018.7 2.2
23/07:00am 10.3 7.9 8.7 90 0.8 SW 11 15 6 8 1018.3 1018.3 1.8
23/06:30am 11.2 5.8 8.1 81 1.5 WSW 26 39 14 21 1018.0 1018.0 1.8
23/06:00am 10.8 6.6 8.2 84 1.3 WSW 20 30 11 16 1017.7 1017.7 1.8
23/05:30am 10.5 5.8 7.6 82 1.4 WSW 22 30 12 16 1017.2 1017.2 1.8
23/05:00am 11.4 6.8 8.1 80 1.6 WSW 22 32 12 17 1016.9 1016.9 1.8
23/04:30am 11.4 6.4 7.9 79 1.7 W 24 39 13 21 1016.8 1016.8 1.8
23/04:00am 11.2 7.0 8.1 81 1.5 W 20 30 11 16 1016.6 1016.6 1.8
23/03:30am 11.4 6.8 8.1 80 1.6 W 22 33 12 18 1016.5 1016.5 1.8
23/03:00am 11.5 7.0 8.4 81 1.5 W 22 35 12 19 1016.5 1016.5 1.6
23/02:30am 12.0 5.9 8.3 78 1.8 W 30 41 16 22 1016.6 1016.6 1.6
23/02:00am 12.0 7.5 8.7 80 1.6 W 22 30 12 16 1016.8 1016.8 1.6
23/01:30am 11.6 6.7 8.3 80 1.6 W 24 35 13 19 1016.9 1016.9 1.6
23/01:00am 11.8 7.6 8.3 79 1.7 W 20 33 11 18 1017.1 1017.1 1.6
23/12:30am 11.7 7.7 8.9 83 1.4 W 20 33 11 18 1017.3 1017.3 1.6
23/12:00am 11.9 7.2 9.1 83 1.4 W 24 33 13 18 1017.3 1017.3 1.6
 
Date/Time
CST
Temp
°C
App
Temp
°C
Dew
Point
°C
Rel
Hum
%
Delta-T
°C
Wind Press
QNH
hPa
Press
MSL
hPa
Rain since
9am
mm
Dir  Spd
km/h
Gust
km/h
Spd
kts
Gust
kts
22/11:30pm 11.6 6.8 8.8 83 1.4 W 24 33 13 18 1017.4 1017.4 1.6
22/11:00pm 11.4 7.6 9.1 86 1.1 W 19 33 10 18 1017.4 1017.4 1.6
22/10:37pm 11.3 5.7 8.9 85 1.2 W 28 41 15 22 1017.5 1017.5 1.4
22/10:36pm 11.4 5.9 9.0 85 1.2 W 28 39 15 21 1017.6 1017.6 1.4
22/10:30pm 11.5 6.4 9.1 85 1.2 W 26 35 14 19 1017.4 1017.4 1.4
22/10:25pm 11.6 7.3 9.3 86 1.2 W 22 35 12 19 1017.4 1017.4 1.4
22/10:23pm 11.8 7.9 9.5 86 1.2 W 20 35 11 19 1017.4 1017.4 1.4
22/10:00pm 12.4 8.4 9.2 81 1.6 W 20 28 11 15 1017.5 1017.5 0.8
22/09:30pm 12.4 8.3 8.7 78 1.8 W 20 30 11 16 1017.5 1017.5 0.8
22/09:00pm 12.6 8.2 8.9 78 1.9 W 22 30 12 16 1017.4 1017.4 0.8
22/08:30pm 12.3 7.9 9.1 81 1.6 W 22 32 12 17 1017.2 1017.2 0.8
22/08:00pm 12.9 8.5 8.8 76 2.1 W 22 28 12 15 1016.7 1016.7 0.8
22/07:30pm 13.4 7.7 8.5 72 2.4 W 28 39 15 21 1016.3 1016.3 0.8
22/07:00pm 13.5 7.4 8.4 71 2.5 W 30 43 16 23 1015.8 1015.8 0.8
22/06:30pm 12.9 8.8 8.8 76 2.1 W 20 30 11 16 1015.6 1015.6 0.8
22/06:00pm 13.1 7.2 7.5 69 2.7 W 28 44 15 24 1015.3 1015.3 0.8
22/05:30pm 14.0 9.1 8.6 70 2.7 W 24 33 13 18 1015.1 1015.1 0.8
22/05:00pm 14.5 9.0 9.3 71 2.7 WSW 28 35 15 19 1014.7 1014.7 0.8
22/04:30pm 15.5 10.5 9.4 67 3.1 W 26 39 14 21 1014.4 1014.4 0.8
22/04:00pm 15.6 9.9 9.7 68 3.1 W 30 41 16 22 1014.2 1014.2 0.8
22/03:30pm 13.9 8.5 10.9 82 1.6 W 30 39 16 21 1014.3 1014.3 0.8
22/03:00pm 14.7 7.2 9.3 70 2.8 W 39 61 21 33 1013.9 1013.9 0.8
22/02:55pm 14.5 8.3 9.3 71 2.7 W 32 52 17 28 1013.9 1013.9 0.8
22/02:30pm 14.6 8.5 9.8 73 2.5 W 32 41 17 22 1013.7 1013.7 0.8
22/02:00pm 15.4 9.7 11.0 75 2.3 W 32 50 17 27 1013.6 1013.6 0.8
22/01:42pm 14.2 10.7 13.4 95 0.4 WNW 24 35 13 19 1013.7 1013.7 0.8
22/01:30pm 12.3 6.8 12.0 98 0.2 W 32 44 17 24 1013.8 1013.8 0.8
22/01:25pm 12.6 7.1 12.3 98 0.2 W 33 44 18 24 1013.8 1013.8 0.6
22/01:16pm 13.2 8.1 11.9 92 0.7 W 30 44 16 24 1013.7 1013.7 0.4
22/01:00pm 13.1 5.9 10.5 84 1.4 W 39 57 21 31 1013.6 1013.6 0.2
22/12:52pm 15.7 9.1 8.7 63 3.6 WNW 33 57 18 31 1013.3 1013.3 0.0
22/12:30pm 13.4 7.1 10.9 85 1.3 W 35 52 19 28 1013.5 1013.5 0.0
22/12:06pm 16.2 8.1 8.7 61 3.8 WNW 41 59 22 32 1013.1 1013.1 0.0
22/12:00pm 15.6 6.9 7.6 59 4.0 W 43 59 23 32 1013.1 1013.1 0.0
22/11:43am 16.3 8.5 9.7 65 3.4 WNW 41 59 22 32 1013.1 1013.1 0.0
22/11:30am 16.2 9.1 9.4 64 3.5 WNW 37 50 20 27 1013.0 1013.0 0.0
22/11:04am 13.4 6.0 10.0 80 1.8 W 39 57 21 31 1012.9 1012.9 0.0
22/11:00am 13.6 5.8 9.6 77 2.0 W 41 57 22 31 1012.9 1012.9 0.0
22/10:40am 15.4 8.0 9.7 69 3.0 WNW 39 57 21 31 1012.7 1012.7 0.0
22/10:30am 15.0 7.6 10.0 72 2.6 WNW 39 50 21 27 1012.8 1012.8 0.0
22/10:00am 14.8 8.4 10.6 76 2.2 WNW 35 46 19 25 1012.6 1012.6 0.0
22/09:37am 14.5 8.3 9.3 71 2.7 WNW 32 52 17 28 1012.6 1012.6 0.0
22/09:30am 15.0 9.7 11.4 79 1.9 WNW 30 41 16 22 1012.7 1012.7 0.0
22/09:01am 13.5 7.8 9.9 79 1.9 WNW 30 48 16 26 1012.5 1012.5 0.0
22/09:00am 13.7 8.5 10.3 80 1.8 WNW 28 39 15 21 1012.5 1012.5 6.2
22/08:30am 12.4 6.6 9.4 82 1.5 W 30 43 16 23 1012.2 1012.2 6.2
22/08:27am 12.6 7.6 11.0 90 0.8 W 28 43 15 23 1012.2 1012.2 6.2
22/08:00am 11.8 6.2 10.0 89 0.9 W 30 43 16 23 1011.8 1011.8 3.8
22/07:56am 12.0 6.7 9.7 86 1.2 W 28 43 15 23 1011.8 1011.8 3.8
22/07:30am 12.6 6.8 9.4 81 1.6 WNW 30 41 16 22 1011.4 1011.4 3.2
22/07:12am 12.6 6.8 9.6 82 1.5 WNW 30 48 16 26 1011.2 1011.2 3.2
22/07:00am 12.5 6.1 9.3 81 1.6 WNW 33 46 18 25 1011.0 1011.0 3.2
22/06:41am 12.3 5.7 8.6 78 1.8 WNW 33 54 18 29 1010.6 1010.6 3.2
22/06:30am 12.5 7.0 9.1 80 1.7 WNW 28 43 15 23 1010.4 1010.4 3.2
22/06:00am 11.9 6.0 9.1 83 1.4 WNW 30 41 16 22 1010.5 1010.5 3.2
22/05:32am 11.7 6.5 10.3 91 0.7 WNW 28 37 15 20 1010.1 1010.1 3.2
22/05:30am 11.8 6.6 10.4 91 0.7 WNW 28 39 15 21 1010.1 1010.1 3.0
22/05:22am 11.8 6.2 10.0 89 0.9 WNW 30 44 16 24 1010.0 1010.0 3.0
22/05:00am 12.1 6.5 8.9 81 1.6 WNW 28 43 15 23 1009.5 1009.5 2.6
22/04:43am 11.6 6.2 9.5 87 1.1 WNW 28 46 15 25 1009.4 1009.4 2.6
22/04:30am 11.7 5.4 9.6 87 1.1 WNW 33 52 18 28 1009.3 1009.3 2.4
22/04:23am 12.2 6.7 9.2 82 1.5 WNW 28 48 15 26 1009.1 1009.1 2.2
22/04:00am 11.6 7.2 10.3 92 0.7 WNW 24 33 13 18 1009.1 1009.1 2.2
22/03:58am 11.6 7.6 10.5 93 0.6 WNW 22 32 12 17 1009.1 1009.1 2.2
22/03:40am 12.0 6.6 9.6 85 1.2 WNW 28 41 15 22 1009.1 1009.1 1.2
22/03:30am 12.6 6.6 8.5 76 2.0 WNW 30 41 16 22 1009.0 1009.0 0.6
22/03:01am 12.5 6.2 8.8 78 1.8 WNW 32 50 17 27 1009.0 1009.0 0.6
22/03:00am 12.4 6.4 8.7 78 1.8 WNW 30 43 16 23 1009.0 1009.0 0.6
22/02:30am 12.3 7.2 9.3 82 1.5 WNW 26 41 14 22 1008.8 1008.8 0.4
22/02:00am 12.6 6.3 9.1 79 1.8 WNW 32 50 17 27 1009.0 1009.0 0.2
22/01:52am 13.3 6.9 8.4 72 2.4 WNW 32 50 17 27 1009.0 1009.0 0.2
22/01:30am 13.1 7.0 8.4 73 2.3 WNW 30 43 16 23 1009.2 1009.2 0.2
22/01:00am 13.3 6.9 8.6 73 2.4 WNW 32 43 17 23 1009.2 1009.2 0.2
22/12:30am 13.0 6.5 8.3 73 2.3 WNW 32 48 17 26 1009.2 1009.2 0.2
22/12:00am 12.8 6.9 8.9 77 2.0 WNW 30 43 16 23 1009.2 1009.2 0.2
 
Date/Time
CST
Temp
°C
App
Temp
°C
Dew
Point
°C
Rel
Hum
%
Delta-T
°C
Wind Press
QNH
hPa
Press
MSL
hPa
Rain since
9am
mm
Dir  Spd
km/h
Gust
km/h
Spd
kts
Gust
kts
21/11:30pm 12.6 7.9 9.4 81 1.6 WNW 24 43 13 23 1009.1 1009.1 0.2
21/11:00pm 11.5 6.2 8.5 82 1.5 WNW 26 35 14 19 1009.3 1009.3 0.2
21/10:44pm 12.7 6.9 9.5 81 1.6 W 30 48 16 26 1009.3 1009.3 0.0
21/10:30pm 13.0 6.9 9.6 80 1.7 WNW 32 43 17 23 1009.2 1009.2 0.0
21/10:00pm 12.8 4.9 9.4 80 1.7 W 41 61 22 33 1008.9 1008.9 0.0

Other formats

Comma delimited format used in spreadsheet applications
http://www.bom.gov.au/fwo/IDS60801/IDS60801.95677.axf

JavaScript Object Notation format (JSON) in row-major order
http://www.bom.gov.au/fwo/IDS60801/IDS60801.95677.json

Data quality

Most of these data are generated automatically and are frequently updated. Quality checks on data are not normally performed. It is possible for incorrect values to appear. Refer to information at About Latest Weather Observations and please check the disclaimer before using these data.